createdAt,value
2023-01-20T00:00:00.350Z,11.85
2023-01-20T00:00:31.829Z,12.27
2023-01-20T00:01:03.353Z,13.20
2023-01-20T00:01:36.369Z,11.97
2023-01-20T00:02:07.701Z,12.70
2023-01-20T00:02:39.162Z,11.95
2023-01-20T00:03:10.542Z,13.27
2023-01-20T00:03:42.337Z,12.95
2023-01-20T00:04:13.710Z,12.10
2023-01-20T00:04:45.058Z,12.93
2023-01-20T00:05:16.469Z,11.10
2023-01-20T00:05:51.072Z,12.85
2023-01-20T00:06:23.163Z,11.32
2023-01-20T00:06:54.517Z,12.48
2023-01-20T00:07:25.856Z,12.02
2023-01-20T00:07:57.192Z,12.43
2023-01-20T00:08:28.543Z,12.48
2023-01-20T00:09:00.896Z,13.23
2023-01-20T00:09:32.251Z,11.80
2023-01-20T00:10:03.694Z,12.63
2023-01-20T00:10:37.016Z,14.00
2023-01-20T00:11:09.593Z,12.20
2023-01-20T00:11:40.919Z,13.13
2023-01-20T00:12:12.241Z,12.85
2023-01-20T00:12:43.558Z,12.40
2023-01-20T00:13:14.883Z,15.73
2023-01-20T00:13:46.253Z,12.60
2023-01-20T00:14:17.684Z,14.00
2023-01-20T00:14:49.012Z,12.55
2023-01-20T00:15:23.235Z,14.55
2023-01-20T00:15:54.589Z,14.02
2023-01-20T00:16:26.393Z,13.48
2023-01-20T00:16:57.784Z,13.30
2023-01-20T00:17:29.123Z,12.70
2023-01-20T00:18:00.466Z,13.52
2023-01-20T00:18:31.943Z,13.57
2023-01-20T00:19:03.771Z,12.07
2023-01-20T00:19:35.105Z,13.40
2023-01-20T00:20:06.771Z,13.38
2023-01-20T00:20:38.102Z,13.00
2023-01-20T00:21:10.837Z,14.48
2023-01-20T00:21:42.487Z,12.38
2023-01-20T00:22:13.980Z,13.50
2023-01-20T00:22:45.307Z,14.35
2023-01-20T00:23:16.686Z,14.00
2023-01-20T00:23:49.652Z,13.95
2023-01-20T00:24:21.123Z,14.50
2023-01-20T00:24:52.461Z,13.85
2023-01-20T00:25:23.795Z,13.68
2023-01-20T00:25:55.123Z,12.30
2023-01-20T00:26:26.507Z,12.40
2023-01-20T00:26:57.837Z,13.20
2023-01-20T00:27:29.185Z,15.02
2023-01-20T00:28:00.539Z,15.60
2023-01-20T00:28:31.896Z,14.98
2023-01-20T00:29:03.300Z,13.95
2023-01-20T00:29:34.668Z,14.93
2023-01-20T00:30:06.335Z,12.48
2023-01-20T00:30:37.694Z,13.95
2023-01-20T00:31:19.212Z,13.98
2023-01-20T00:31:50.604Z,13.82
2023-01-20T00:32:21.988Z,14.00
2023-01-20T00:32:53.770Z,13.98
2023-01-20T00:33:25.105Z,13.88
2023-01-20T00:33:57.781Z,14.70
2023-01-20T00:34:29.136Z,14.40
2023-01-20T00:35:00.693Z,12.77
2023-01-20T00:35:32.028Z,16.38
2023-01-20T00:36:03.405Z,14.30
2023-01-20T00:36:34.757Z,15.15
2023-01-20T00:37:06.102Z,13.45
2023-01-20T00:37:37.593Z,14.32
2023-01-20T00:38:08.917Z,13.20
2023-01-20T00:38:40.474Z,14.80
2023-01-20T00:39:11.838Z,13.68
2023-01-20T00:39:43.199Z,14.63
2023-01-20T00:40:14.613Z,14.13
2023-01-20T00:40:52.835Z,13.55
2023-01-20T00:41:24.327Z,16.20
2023-01-20T00:41:55.701Z,14.38
2023-01-20T00:42:27.042Z,16.25
2023-01-20T00:42:58.377Z,14.45
2023-01-20T00:43:29.741Z,15.20
2023-01-20T00:44:01.115Z,16.35
2023-01-20T00:44:32.467Z,15.13
2023-01-20T00:45:04.265Z,15.35
2023-01-20T00:45:35.612Z,13.75
2023-01-20T00:46:06.993Z,15.23
2023-01-20T00:46:38.397Z,16.45
2023-01-20T00:47:09.813Z,16.77
2023-01-20T00:47:41.154Z,15.48
2023-01-20T00:48:12.527Z,15.00
2023-01-20T00:48:43.858Z,15.07
2023-01-20T00:49:15.233Z,17.33
2023-01-20T00:49:47.063Z,15.57
2023-01-20T00:50:18.455Z,14.13
2023-01-20T00:50:49.984Z,15.15
2023-01-20T00:51:21.362Z,15.45
2023-01-20T00:51:52.716Z,13.45
2023-01-20T00:52:24.056Z,15.15
2023-01-20T00:52:55.431Z,14.63
2023-01-20T00:53:27.019Z,14.60
2023-01-20T00:53:58.379Z,16.10
2023-01-20T00:54:29.728Z,14.38
2023-01-20T00:55:01.093Z,14.40
2023-01-20T00:55:32.433Z,14.57
2023-01-20T00:56:04.025Z,12.90
2023-01-20T00:56:35.389Z,14.70
2023-01-20T00:57:06.846Z,14.52
2023-01-20T00:57:38.181Z,13.35
2023-01-20T00:58:09.541Z,14.10
2023-01-20T00:58:42.532Z,13.88
2023-01-20T00:59:14.107Z,16.70
2023-01-20T00:59:45.501Z,14.75
2023-01-20T01:00:18.151Z,13.40
2023-01-20T01:00:50.397Z,17.35
2023-01-20T01:01:22.392Z,14.43
2023-01-20T01:01:53.902Z,15.30
2023-01-20T01:02:25.355Z,15.20
2023-01-20T01:02:56.726Z,14.10
2023-01-20T01:03:28.511Z,15.07
2023-01-20T01:03:59.971Z,15.50
2023-01-20T01:04:31.322Z,13.93
2023-01-20T01:05:02.680Z,14.02
2023-01-20T01:05:34.079Z,13.73
2023-01-20T01:06:10.391Z,14.15
2023-01-20T01:06:41.756Z,13.50
2023-01-20T01:07:13.090Z,13.00
2023-01-20T01:07:44.477Z,14.18
2023-01-20T01:08:15.925Z,13.50
2023-01-20T01:08:47.294Z,13.70
2023-01-20T01:09:18.852Z,13.98
2023-01-20T01:09:50.203Z,15.93
2023-01-20T01:10:21.549Z,15.25
2023-01-20T01:10:55.196Z,15.90
2023-01-20T01:11:26.606Z,14.57
2023-01-20T01:11:58.009Z,14.57
2023-01-20T01:12:29.338Z,14.55
2023-01-20T01:13:01.223Z,14.35
2023-01-20T01:13:32.764Z,16.38
2023-01-20T01:14:04.106Z,14.73
2023-01-20T01:14:35.504Z,15.13
2023-01-20T01:15:07.035Z,14.13
2023-01-20T01:15:38.371Z,15.50
2023-01-20T01:16:12.990Z,14.32
2023-01-20T01:16:44.643Z,14.40
2023-01-20T01:17:16.004Z,13.35
2023-01-20T01:17:47.369Z,16.70
2023-01-20T01:18:18.728Z,14.52
2023-01-20T01:18:52.501Z,15.32
2023-01-20T01:19:23.895Z,16.17
2023-01-20T01:19:55.255Z,14.93
2023-01-20T01:20:27.125Z,16.10
2023-01-20T01:20:58.463Z,14.75
2023-01-20T01:21:29.847Z,13.93
2023-01-20T01:22:01.186Z,15.68
2023-01-20T01:22:32.602Z,16.90
2023-01-20T01:23:03.930Z,17.98
2023-01-20T01:23:35.277Z,19.52
2023-01-20T01:24:06.660Z,16.88
2023-01-20T01:24:38.033Z,16.50
2023-01-20T01:25:09.575Z,18.98
2023-01-20T01:25:40.929Z,16.65
2023-01-20T01:26:12.412Z,17.08
2023-01-20T01:26:43.737Z,17.33
2023-01-20T01:27:15.371Z,16.63
2023-01-20T01:27:46.804Z,19.20
2023-01-20T01:28:18.163Z,20.15
2023-01-20T01:28:49.906Z,19.10
2023-01-20T01:29:21.271Z,20.83
2023-01-20T01:29:52.639Z,18.08
2023-01-20T01:30:24.015Z,19.33
2023-01-20T01:30:55.463Z,17.55
2023-01-20T01:31:26.828Z,16.83
2023-01-20T01:31:58.194Z,18.90
2023-01-20T01:32:29.522Z,19.02
2023-01-20T01:33:00.910Z,21.70
2023-01-20T01:33:32.814Z,21.98
2023-01-20T01:34:04.327Z,17.85
2023-01-20T01:34:35.706Z,18.90
2023-01-20T01:35:07.147Z,18.30
2023-01-20T01:35:38.493Z,19.25
2023-01-20T01:36:12.880Z,20.00
2023-01-20T01:36:44.204Z,17.90
2023-01-20T01:37:15.543Z,17.05
2023-01-20T01:37:46.909Z,19.70
2023-01-20T01:38:18.437Z,20.60
2023-01-20T01:38:57.674Z,22.20
2023-01-20T01:39:30.573Z,21.45
2023-01-20T01:40:01.920Z,22.42
2023-01-20T01:40:33.440Z,22.58
2023-01-20T01:41:05.035Z,21.08
2023-01-20T01:41:36.407Z,20.17
2023-01-20T01:42:12.058Z,18.27
2023-01-20T01:42:43.417Z,19.98
2023-01-20T01:43:22.061Z,21.92
2023-01-20T01:44:00.890Z,20.67
2023-01-20T01:44:32.410Z,20.45
2023-01-20T01:45:03.741Z,19.75
2023-01-20T01:45:35.316Z,17.75
2023-01-20T01:46:07.164Z,20.55
2023-01-20T01:46:39.082Z,23.27
2023-01-20T01:47:10.472Z,21.02
2023-01-20T01:47:47.574Z,23.25
2023-01-20T01:48:22.155Z,20.65
2023-01-20T01:48:53.731Z,20.33
2023-01-20T01:49:27.121Z,17.83
2023-01-20T01:49:58.479Z,20.70
2023-01-20T01:50:36.743Z,18.58
2023-01-20T01:51:19.342Z,20.92
2023-01-20T01:51:54.594Z,18.83
2023-01-20T01:52:25.953Z,19.15
2023-01-20T01:52:57.334Z,17.45
2023-01-20T01:53:30.853Z,18.52
2023-01-20T01:54:08.154Z,17.92
2023-01-20T01:54:40.856Z,18.10
2023-01-20T01:55:13.693Z,20.77
2023-01-20T01:55:51.579Z,17.00
2023-01-20T01:56:23.937Z,20.75
2023-01-20T01:56:55.337Z,17.25
2023-01-20T01:57:26.769Z,19.45
2023-01-20T01:57:59.849Z,19.77
2023-01-20T01:58:33.767Z,17.38
2023-01-20T01:59:05.198Z,20.17
2023-01-20T01:59:37.200Z,19.10
2023-01-20T02:00:08.770Z,18.88
2023-01-20T02:00:40.292Z,19.30
2023-01-20T02:01:12.181Z,17.05
2023-01-20T02:01:46.507Z,18.40
2023-01-20T02:02:21.904Z,20.52
2023-01-20T02:02:56.504Z,20.57
2023-01-20T02:03:31.734Z,20.00
2023-01-20T02:04:10.684Z,18.27
2023-01-20T02:04:42.038Z,21.20
2023-01-20T02:05:14.851Z,18.48
2023-01-20T02:05:48.063Z,18.15
2023-01-20T02:06:20.039Z,17.90
2023-01-20T02:06:53.046Z,18.77
2023-01-20T02:07:24.572Z,17.52
2023-01-20T02:07:57.104Z,18.23
2023-01-20T02:08:28.443Z,21.15
2023-01-20T02:09:01.601Z,19.70
2023-01-20T02:09:33.269Z,17.80
2023-01-20T02:10:04.940Z,17.55
2023-01-20T02:10:36.329Z,17.00
2023-01-20T02:11:07.727Z,19.60
2023-01-20T02:11:40.366Z,21.70
2023-01-20T02:12:13.605Z,19.70
2023-01-20T02:12:46.227Z,20.25
2023-01-20T02:13:17.589Z,21.05
2023-01-20T02:13:48.971Z,18.23
2023-01-20T02:14:23.098Z,19.60
2023-01-20T02:14:55.686Z,18.52
2023-01-20T02:15:32.319Z,16.40
2023-01-20T02:16:06.488Z,19.80
2023-01-20T02:16:44.466Z,19.33
2023-01-20T02:17:22.018Z,19.20
2023-01-20T02:18:16.653Z,17.88
2023-01-20T02:18:54.109Z,20.15
2023-01-20T02:19:45.683Z,17.05
2023-01-20T02:20:29.533Z,16.10
2023-01-20T02:21:26.845Z,18.23
2023-01-20T02:21:58.151Z,17.70
2023-01-20T02:22:35.309Z,16.63
2023-01-20T02:23:25.193Z,16.17
2023-01-20T02:24:14.787Z,18.48
2023-01-20T02:24:52.207Z,18.30
2023-01-20T02:25:35.807Z,18.50
2023-01-20T02:26:07.112Z,16.52
2023-01-20T02:26:55.208Z,17.60
2023-01-20T02:27:45.420Z,18.00
2023-01-20T02:28:28.596Z,16.27
2023-01-20T02:29:23.662Z,15.07
2023-01-20T02:30:11.062Z,15.13
2023-01-20T02:30:57.444Z,20.05
2023-01-20T02:31:47.668Z,17.38
2023-01-20T02:32:37.289Z,15.80
2023-01-20T02:33:22.899Z,17.00
2023-01-20T02:34:07.121Z,15.25
2023-01-20T02:34:54.942Z,16.30
2023-01-20T02:35:28.876Z,15.52
2023-01-20T02:36:08.808Z,15.60
2023-01-20T02:36:43.135Z,15.65
2023-01-20T02:37:16.827Z,16.05
2023-01-20T02:37:52.317Z,16.45
2023-01-20T02:38:23.634Z,17.65
2023-01-20T02:38:56.898Z,16.20
2023-01-20T02:39:51.593Z,15.10
2023-01-20T02:40:30.399Z,17.47
2023-01-20T02:41:09.897Z,16.80
2023-01-20T02:41:56.270Z,16.13
2023-01-20T02:42:32.747Z,21.52
2023-01-20T02:43:19.017Z,16.83
2023-01-20T02:43:53.646Z,16.63
2023-01-20T02:44:45.222Z,15.68
2023-01-20T02:45:21.655Z,17.52
2023-01-20T02:45:59.816Z,16.63
2023-01-20T02:46:37.806Z,18.00
2023-01-20T02:47:30.445Z,18.83
2023-01-20T02:48:07.874Z,15.48
2023-01-20T02:48:46.181Z,18.13
2023-01-20T02:49:25.381Z,16.80
2023-01-20T02:50:14.034Z,16.35
2023-01-20T02:50:54.252Z,17.27
2023-01-20T02:51:27.014Z,15.57
2023-01-20T02:52:02.211Z,15.25
2023-01-20T02:52:38.655Z,18.48
2023-01-20T02:53:11.473Z,16.90
2023-01-20T02:53:58.100Z,18.37
2023-01-20T02:54:30.762Z,18.08
2023-01-20T02:55:04.926Z,15.00
2023-01-20T02:55:38.862Z,15.15
2023-01-20T02:56:11.315Z,16.27
2023-01-20T02:56:42.894Z,14.45
2023-01-20T02:57:15.711Z,16.88
2023-01-20T02:57:48.750Z,16.80
2023-01-20T02:58:23.753Z,16.83
2023-01-20T02:59:15.206Z,15.25
2023-01-20T02:59:49.095Z,15.67
2023-01-20T03:00:23.044Z,16.60
2023-01-20T03:00:59.427Z,17.63
2023-01-20T03:01:39.989Z,15.32
2023-01-20T03:02:16.548Z,16.65
2023-01-20T03:02:49.496Z,16.23
2023-01-20T03:03:28.146Z,18.30
2023-01-20T03:04:00.710Z,17.15
2023-01-20T03:04:37.270Z,17.17
2023-01-20T03:05:11.506Z,17.25
2023-01-20T03:05:45.716Z,14.98
2023-01-20T03:06:18.880Z,17.08
2023-01-20T03:06:52.072Z,15.07
2023-01-20T03:07:25.623Z,15.68
2023-01-20T03:07:58.341Z,16.55
2023-01-20T03:08:31.330Z,15.52
2023-01-20T03:09:05.599Z,17.08
2023-01-20T03:09:42.176Z,16.13
2023-01-20T03:10:16.565Z,15.40
2023-01-20T03:10:49.457Z,17.25
2023-01-20T03:11:20.830Z,15.38
2023-01-20T03:11:54.655Z,15.82
2023-01-20T03:12:30.877Z,17.88
2023-01-20T03:13:15.849Z,17.15
2023-01-20T03:13:51.026Z,17.15
2023-01-20T03:14:22.501Z,15.38
2023-01-20T03:14:54.024Z,16.23
2023-01-20T03:15:29.067Z,16.15
2023-01-20T03:16:02.223Z,15.52
2023-01-20T03:16:33.666Z,14.88
2023-01-20T03:17:05.133Z,17.35
2023-01-20T03:17:36.792Z,15.77
2023-01-20T03:18:08.175Z,14.48
2023-01-20T03:18:40.054Z,15.80
2023-01-20T03:19:11.541Z,15.48
2023-01-20T03:19:42.924Z,16.20
2023-01-20T03:20:14.337Z,16.75
2023-01-20T03:20:45.743Z,17.50
2023-01-20T03:21:17.212Z,14.43
2023-01-20T03:21:48.996Z,14.00
2023-01-20T03:22:20.536Z,16.75
2023-01-20T03:22:51.916Z,16.02
2023-01-20T03:23:23.479Z,12.82
2023-01-20T03:23:57.560Z,16.13
2023-01-20T03:24:29.620Z,14.63
2023-01-20T03:25:01.105Z,15.68
2023-01-20T03:25:32.812Z,15.13
2023-01-20T03:26:06.912Z,16.90
2023-01-20T03:26:38.527Z,17.35
2023-01-20T03:27:10.655Z,12.63
2023-01-20T03:27:42.044Z,15.73
2023-01-20T03:28:13.486Z,16.23
2023-01-20T03:28:45.477Z,14.15
2023-01-20T03:29:16.820Z,13.70
2023-01-20T03:29:48.189Z,16.77
2023-01-20T03:30:19.643Z,15.75
2023-01-20T03:30:51.483Z,16.00
2023-01-20T03:31:22.956Z,14.30
2023-01-20T03:31:58.932Z,16.88
2023-01-20T03:32:30.583Z,15.32
2023-01-20T03:33:02.693Z,15.13
2023-01-20T03:33:34.130Z,15.80
2023-01-20T03:34:07.904Z,17.55
2023-01-20T03:34:40.612Z,16.98
2023-01-20T03:35:13.178Z,14.80
2023-01-20T03:35:44.764Z,13.82
2023-01-20T03:36:16.517Z,13.93
2023-01-20T03:36:48.425Z,15.55
2023-01-20T03:37:19.800Z,13.82
2023-01-20T03:37:51.161Z,13.52
2023-01-20T03:38:22.523Z,12.32
2023-01-20T03:38:54.637Z,13.03
2023-01-20T03:39:26.499Z,11.82
2023-01-20T03:39:57.874Z,13.35
2023-01-20T03:40:31.708Z,11.73
2023-01-20T03:41:12.273Z,10.85
2023-01-20T03:41:46.608Z,12.45
2023-01-20T03:42:40.905Z,11.65
2023-01-20T03:43:25.602Z,11.13
2023-01-20T03:43:59.483Z,11.02
2023-01-20T03:44:33.558Z,10.88
2023-01-20T03:45:17.012Z,10.35
2023-01-20T03:45:57.531Z,11.68
2023-01-20T03:46:28.906Z,11.43
2023-01-20T03:47:06.321Z,12.27
2023-01-20T03:47:56.667Z,10.70
2023-01-20T03:48:35.490Z,9.27
2023-01-20T03:49:25.321Z,10.07
2023-01-20T03:50:11.732Z,9.88
2023-01-20T03:50:47.340Z,10.23
2023-01-20T03:51:25.260Z,10.13
2023-01-20T03:51:56.593Z,11.50
2023-01-20T03:52:46.580Z,11.52
2023-01-20T03:53:28.842Z,10.57
2023-01-20T03:54:02.734Z,9.50
2023-01-20T03:54:53.203Z,9.15
2023-01-20T03:55:28.638Z,10.82
2023-01-20T03:56:14.586Z,10.23
2023-01-20T03:56:51.190Z,10.68
2023-01-20T03:57:25.192Z,11.00
2023-01-20T03:57:58.396Z,11.40
2023-01-20T03:58:31.944Z,10.38
2023-01-20T03:59:03.633Z,9.80
2023-01-20T03:59:37.305Z,9.60
2023-01-20T04:00:09.196Z,9.68
2023-01-20T04:00:43.023Z,11.20
2023-01-20T04:01:18.743Z,10.52
2023-01-20T04:01:51.857Z,10.98
2023-01-20T04:02:23.938Z,9.53
2023-01-20T04:02:55.625Z,10.10
2023-01-20T04:03:30.093Z,10.07
2023-01-20T04:04:02.788Z,9.90
2023-01-20T04:04:35.325Z,11.60
2023-01-20T04:05:07.525Z,10.60
2023-01-20T04:05:39.731Z,9.77
2023-01-20T04:06:12.448Z,10.75
2023-01-20T04:06:44.441Z,10.38
2023-01-20T04:07:19.900Z,10.18
2023-01-20T04:07:52.900Z,12.60
2023-01-20T04:08:26.552Z,8.98
2023-01-20T04:09:01.013Z,11.25
2023-01-20T04:09:35.469Z,12.23
2023-01-20T04:10:09.554Z,11.15
2023-01-20T04:10:42.064Z,10.65
2023-01-20T04:11:13.439Z,11.95
2023-01-20T04:11:44.832Z,12.68
2023-01-20T04:12:16.229Z,10.57
2023-01-20T04:12:47.590Z,12.60
2023-01-20T04:13:18.949Z,11.75
2023-01-20T04:13:50.557Z,10.25
2023-01-20T04:14:21.954Z,11.02
2023-01-20T04:14:53.322Z,12.25
2023-01-20T04:15:25.611Z,11.80
2023-01-20T04:15:58.508Z,9.68
2023-01-20T04:16:29.882Z,11.65
2023-01-20T04:17:02.122Z,11.15
2023-01-20T04:17:33.729Z,9.63
2023-01-20T04:18:21.649Z,9.80
2023-01-20T04:18:53.424Z,11.32
2023-01-20T04:19:25.585Z,9.75
2023-01-20T04:19:57.126Z,11.25
2023-01-20T04:20:28.480Z,10.40
2023-01-20T04:21:03.618Z,10.32
2023-01-20T04:21:36.747Z,9.75
2023-01-20T04:22:40.519Z,9.80
2023-01-20T04:23:17.669Z,11.35
2023-01-20T04:24:00.457Z,13.55
2023-01-20T04:24:41.150Z,11.02
2023-01-20T04:25:31.983Z,10.35
2023-01-20T04:26:03.399Z,11.35
2023-01-20T04:26:34.714Z,10.38
2023-01-20T04:27:06.039Z,9.90
2023-01-20T04:27:37.417Z,9.57
2023-01-20T04:28:08.763Z,7.68
2023-01-20T04:28:40.105Z,8.98
2023-01-20T04:29:13.184Z,9.13
2023-01-20T04:29:44.719Z,9.50
2023-01-20T04:30:16.162Z,11.80
2023-01-20T04:30:48.054Z,10.75
2023-01-20T04:31:29.983Z,10.23
2023-01-20T04:32:03.323Z,9.48
2023-01-20T04:32:34.688Z,10.77
2023-01-20T04:33:06.111Z,10.68
2023-01-20T04:33:37.925Z,10.82
2023-01-20T04:34:11.976Z,10.95
2023-01-20T04:34:43.394Z,9.10
2023-01-20T04:35:16.239Z,10.45
2023-01-20T04:35:47.907Z,10.98
2023-01-20T04:36:19.253Z,10.32
2023-01-20T04:36:50.646Z,11.00
2023-01-20T04:37:22.009Z,8.75
2023-01-20T04:37:53.398Z,11.18
2023-01-20T04:38:24.782Z,9.27
2023-01-20T04:38:56.173Z,10.82
2023-01-20T04:39:27.502Z,11.65
2023-01-20T04:39:58.857Z,13.40
2023-01-20T04:40:30.294Z,11.43
2023-01-20T04:41:03.563Z,12.00
2023-01-20T04:41:35.072Z,11.15
2023-01-20T04:42:06.472Z,11.40
2023-01-20T04:42:37.969Z,11.18
2023-01-20T04:43:09.327Z,12.90
2023-01-20T04:43:43.318Z,10.27
2023-01-20T04:44:14.692Z,12.63
2023-01-20T04:44:46.084Z,13.23
2023-01-20T04:45:17.725Z,10.88
2023-01-20T04:45:49.146Z,10.88
2023-01-20T04:46:20.808Z,10.15
2023-01-20T04:46:55.985Z,9.90
2023-01-20T04:47:30.313Z,11.05
2023-01-20T04:48:05.037Z,10.10
2023-01-20T04:48:36.361Z,11.13
2023-01-20T04:49:07.722Z,10.73
2023-01-20T04:49:39.080Z,10.32
2023-01-20T04:50:11.085Z,8.70
2023-01-20T04:50:42.949Z,9.48
2023-01-20T04:51:14.436Z,9.50
2023-01-20T04:51:45.960Z,9.90
2023-01-20T04:52:17.653Z,10.07
2023-01-20T04:52:49.041Z,10.13
2023-01-20T04:53:20.389Z,10.13
2023-01-20T04:53:56.045Z,10.05
2023-01-20T04:54:27.407Z,11.85
2023-01-20T04:54:58.759Z,10.35
2023-01-20T04:55:31.542Z,9.95
2023-01-20T04:56:02.941Z,9.30
2023-01-20T04:56:34.304Z,9.25
2023-01-20T04:57:05.703Z,9.45
2023-01-20T04:57:37.048Z,9.20
2023-01-20T04:58:11.796Z,10.23
2023-01-20T04:58:43.157Z,12.02
2023-01-20T04:59:14.538Z,9.52
2023-01-20T04:59:45.934Z,9.63
2023-01-20T05:00:17.482Z,9.00
2023-01-20T05:00:48.835Z,10.43
2023-01-20T05:01:20.312Z,8.33
2023-01-20T05:01:51.775Z,9.48
2023-01-20T05:02:23.403Z,9.65
2023-01-20T05:02:57.630Z,8.98
2023-01-20T05:03:29.034Z,9.43
2023-01-20T05:04:00.612Z,10.57
2023-01-20T05:04:31.963Z,8.95
2023-01-20T05:05:03.375Z,10.40
2023-01-20T05:05:34.761Z,9.70
2023-01-20T05:06:06.289Z,8.18
2023-01-20T05:06:37.652Z,8.68
2023-01-20T05:07:08.994Z,10.07
2023-01-20T05:07:40.370Z,8.77
2023-01-20T05:08:11.732Z,9.82
2023-01-20T05:08:43.087Z,10.05
2023-01-20T05:09:14.832Z,11.18
2023-01-20T05:09:46.208Z,9.23
2023-01-20T05:10:17.666Z,10.20
2023-01-20T05:10:49.319Z,11.50
2023-01-20T05:11:20.688Z,9.63
2023-01-20T05:11:52.055Z,9.93
2023-01-20T05:12:23.399Z,10.20
2023-01-20T05:12:54.728Z,12.63
2023-01-20T05:13:26.045Z,11.80
2023-01-20T05:13:57.391Z,12.70
2023-01-20T05:14:28.724Z,10.25
2023-01-20T05:15:00.094Z,11.85
2023-01-20T05:15:31.443Z,11.23
2023-01-20T05:16:03.274Z,12.05
2023-01-20T05:16:34.717Z,11.13
2023-01-20T05:17:06.097Z,10.27
2023-01-20T05:17:37.448Z,10.10
2023-01-20T05:18:08.845Z,11.23
2023-01-20T05:18:40.201Z,10.52
2023-01-20T05:19:11.723Z,11.48
2023-01-20T05:19:43.095Z,11.45
2023-01-20T05:20:14.656Z,12.17
2023-01-20T05:20:47.065Z,12.07
2023-01-20T05:21:18.400Z,13.88
2023-01-20T05:21:49.901Z,11.98
2023-01-20T05:22:21.268Z,10.43
2023-01-20T05:22:52.603Z,10.30
2023-01-20T05:23:23.960Z,11.23
2023-01-20T05:23:55.445Z,15.85
2023-01-20T05:24:26.819Z,10.30
2023-01-20T05:24:58.168Z,11.65
2023-01-20T05:25:29.496Z,13.98
2023-01-20T05:26:00.833Z,14.25
2023-01-20T05:26:32.167Z,12.25
2023-01-20T05:27:03.600Z,12.23
2023-01-20T05:27:35.245Z,14.68
2023-01-20T05:28:06.618Z,11.20
2023-01-20T05:28:37.976Z,11.25
2023-01-20T05:29:09.346Z,13.73
2023-01-20T05:29:40.684Z,11.23
2023-01-20T05:30:12.138Z,11.63
2023-01-20T05:30:43.607Z,10.85
2023-01-20T05:31:15.186Z,10.50
2023-01-20T05:31:46.628Z,13.53
2023-01-20T05:32:18.028Z,13.07
2023-01-20T05:32:49.590Z,12.30
2023-01-20T05:33:20.942Z,12.02
2023-01-20T05:33:52.318Z,10.15
2023-01-20T05:34:23.643Z,10.43
2023-01-20T05:34:55.038Z,12.48
2023-01-20T05:35:26.420Z,10.45
2023-01-20T05:35:57.746Z,12.32
2023-01-20T05:36:29.115Z,11.63
2023-01-20T05:37:00.457Z,12.02
2023-01-20T05:37:31.802Z,11.10
2023-01-20T05:38:03.123Z,8.85
2023-01-20T05:38:34.537Z,15.68
2023-01-20T05:39:05.922Z,10.05
2023-01-20T05:39:37.245Z,13.48
2023-01-20T05:40:09.043Z,10.90
2023-01-20T05:40:40.424Z,10.95
2023-01-20T05:41:11.870Z,10.88
2023-01-20T05:41:43.227Z,10.95
2023-01-20T05:42:14.609Z,11.25
2023-01-20T05:42:45.971Z,10.30
2023-01-20T05:43:17.368Z,11.07
2023-01-20T05:43:48.730Z,9.52
2023-01-20T05:44:20.086Z,11.07
2023-01-20T05:44:51.437Z,11.43
2023-01-20T05:45:22.782Z,10.60
2023-01-20T05:45:54.149Z,9.52
2023-01-20T05:46:25.521Z,10.50
2023-01-20T05:46:56.901Z,10.65
2023-01-20T05:47:28.358Z,10.80
2023-01-20T05:48:00.238Z,10.70
2023-01-20T05:48:31.791Z,11.00
2023-01-20T05:49:03.173Z,12.43
2023-01-20T05:49:34.583Z,12.82
2023-01-20T05:50:06.184Z,9.90
2023-01-20T05:50:37.601Z,11.85
2023-01-20T05:51:08.959Z,11.45
2023-01-20T05:51:40.363Z,12.97
2023-01-20T05:52:11.680Z,11.43
2023-01-20T05:52:43.026Z,12.18
2023-01-20T05:53:14.898Z,11.15
2023-01-20T05:53:46.264Z,10.60
2023-01-20T05:54:17.678Z,10.38
2023-01-20T05:54:49.019Z,9.43
2023-01-20T05:55:20.936Z,9.82
2023-01-20T05:55:58.655Z,9.55
2023-01-20T05:56:30.022Z,11.48
2023-01-20T05:57:01.359Z,11.85
2023-01-20T05:57:32.705Z,10.57
2023-01-20T05:58:04.128Z,10.60
2023-01-20T05:58:35.531Z,10.77
2023-01-20T05:59:06.868Z,9.15
2023-01-20T05:59:38.191Z,12.25
2023-01-20T06:00:09.905Z,12.00
2023-01-20T06:00:41.257Z,9.83
2023-01-20T06:01:13.749Z,11.80
2023-01-20T06:01:45.128Z,11.65
2023-01-20T06:02:16.456Z,12.15
2023-01-20T06:02:47.825Z,12.40
2023-01-20T06:03:19.195Z,12.70
2023-01-20T06:03:50.566Z,15.40
2023-01-20T06:04:21.925Z,11.07
2023-01-20T06:04:53.300Z,11.63
2023-01-20T06:05:24.771Z,11.02
2023-01-20T06:05:59.891Z,12.27
2023-01-20T06:06:31.281Z,10.25
2023-01-20T06:07:02.721Z,11.70
2023-01-20T06:07:34.052Z,11.68
2023-01-20T06:08:05.598Z,13.25
2023-01-20T06:08:36.964Z,10.38
2023-01-20T06:09:08.347Z,12.73
2023-01-20T06:09:39.808Z,9.98
2023-01-20T06:10:11.592Z,11.88
2023-01-20T06:10:42.910Z,10.68
2023-01-20T06:11:14.260Z,12.13
2023-01-20T06:11:45.647Z,10.32
2023-01-20T06:12:16.982Z,12.77
2023-01-20T06:12:51.733Z,10.55
2023-01-20T06:13:23.076Z,10.30
2023-01-20T06:13:54.445Z,9.98
2023-01-20T06:14:25.813Z,9.88
2023-01-20T06:14:57.330Z,10.43
2023-01-20T06:15:28.664Z,9.27
2023-01-20T06:16:00.031Z,9.27
2023-01-20T06:16:31.521Z,9.88
2023-01-20T06:17:02.884Z,8.73
2023-01-20T06:17:34.599Z,10.18
2023-01-20T06:18:05.975Z,10.88
2023-01-20T06:18:37.324Z,7.47
2023-01-20T06:19:08.667Z,9.60
2023-01-20T06:19:40.020Z,8.57
2023-01-20T06:20:11.552Z,9.52
2023-01-20T06:20:42.908Z,10.95
2023-01-20T06:21:14.258Z,10.13
2023-01-20T06:21:47.029Z,10.55
2023-01-20T06:22:18.423Z,9.20
2023-01-20T06:22:49.723Z,8.15
2023-01-20T06:23:21.089Z,9.65
2023-01-20T06:23:52.994Z,9.00
2023-01-20T06:24:24.359Z,8.65
2023-01-20T06:24:55.716Z,7.28
2023-01-20T06:25:27.102Z,8.90
2023-01-20T06:26:02.282Z,10.00
2023-01-20T06:26:33.604Z,10.45
2023-01-20T06:27:04.957Z,12.07
2023-01-20T06:27:36.384Z,11.20
2023-01-20T06:28:08.123Z,9.95
2023-01-20T06:28:39.876Z,9.35
2023-01-20T06:29:11.223Z,11.13
2023-01-20T06:29:42.560Z,10.10
2023-01-20T06:30:14.012Z,9.07
2023-01-20T06:30:45.404Z,10.80
2023-01-20T06:31:17.206Z,11.25
2023-01-20T06:31:48.700Z,10.65
2023-01-20T06:32:20.077Z,9.20
2023-01-20T06:32:51.445Z,10.27
2023-01-20T06:33:22.775Z,11.15
2023-01-20T06:33:54.705Z,9.95
2023-01-20T06:34:26.076Z,14.57
2023-01-20T06:34:57.458Z,13.05
2023-01-20T06:35:28.809Z,12.23
2023-01-20T06:36:00.535Z,12.60
2023-01-20T06:36:31.904Z,11.93
2023-01-20T06:37:03.647Z,13.18
2023-01-20T06:37:35.033Z,11.25
2023-01-20T06:38:06.365Z,14.35
2023-01-20T06:38:37.690Z,11.90
2023-01-20T06:39:09.045Z,10.15
2023-01-20T06:39:40.500Z,10.73
2023-01-20T06:40:12.035Z,11.47
2023-01-20T06:40:43.427Z,13.35
2023-01-20T06:41:14.769Z,11.48
2023-01-20T06:41:46.107Z,18.75
2023-01-20T06:42:17.443Z,20.17
2023-01-20T06:42:48.831Z,19.48
2023-01-20T06:43:20.212Z,15.95
2023-01-20T06:43:51.567Z,17.42
2023-01-20T06:44:22.955Z,18.38
2023-01-20T06:44:54.303Z,17.50
2023-01-20T06:45:25.633Z,18.80
2023-01-20T06:46:00.960Z,16.83
2023-01-20T06:46:32.358Z,16.33
2023-01-20T06:47:03.788Z,16.92
2023-01-20T06:47:35.290Z,18.07
2023-01-20T06:48:06.796Z,18.60
2023-01-20T06:48:38.172Z,20.27
2023-01-20T06:49:09.517Z,21.38
2023-01-20T06:49:40.858Z,17.33
2023-01-20T06:50:12.236Z,24.52
2023-01-20T06:50:43.574Z,24.45
2023-01-20T06:51:19.666Z,26.17
2023-01-20T06:51:50.993Z,31.97
2023-01-20T06:52:22.315Z,30.45
2023-01-20T06:52:53.649Z,36.65
2023-01-20T06:53:25.202Z,33.25
2023-01-20T06:53:56.764Z,39.33
2023-01-20T06:54:28.179Z,35.50
2023-01-20T06:54:59.509Z,36.17
2023-01-20T06:55:30.872Z,43.75
2023-01-20T06:56:02.440Z,39.90
2023-01-20T06:56:33.774Z,41.03
2023-01-20T06:57:05.118Z,39.17
2023-01-20T06:57:36.497Z,42.55
2023-01-20T06:58:07.896Z,39.47
2023-01-20T06:58:39.824Z,36.30
2023-01-20T06:59:11.574Z,33.65
2023-01-20T06:59:42.919Z,41.25
2023-01-20T07:00:14.512Z,33.75
2023-01-20T07:00:45.975Z,34.58
2023-01-20T07:01:24.746Z,34.58
2023-01-20T07:01:56.251Z,36.67
2023-01-20T07:02:27.691Z,38.40
2023-01-20T07:02:59.033Z,34.10
2023-01-20T07:03:30.377Z,32.92
2023-01-20T07:04:03.352Z,35.50
2023-01-20T07:04:34.712Z,38.57
2023-01-20T07:05:06.140Z,35.53
2023-01-20T07:05:37.476Z,41.60
2023-01-20T07:06:18.226Z,36.25
2023-01-20T07:06:49.572Z,34.13
2023-01-20T07:07:20.930Z,38.20
2023-01-20T07:07:52.285Z,36.22
2023-01-20T07:08:23.700Z,32.75
2023-01-20T07:08:57.221Z,38.80